METAR Data
IDs: Format: Raw Decoded Include TAF

Data at: 2024 UTC 25 Oct 2021

EDDB 252020Z 16005KT CAVOK 05/04 Q1018 NOSIG